Terminal Aerodrome Forecast
Issued by NWS Cleveland, OH

Home | Current Version | Previous Version | Text Only | Print | Product List | Glossary On
Versions: 1 2 3 4 5 6 7 8 9 10 11 12 13 14 15 16 17
000
FTUS41 KCLE 011504 AAA
TAFCAK
TAF AMD
KCAK 011504Z 0115/0212 01010KT P6SM OVC009
     FM011700 01010KT P6SM VCSH OVC012
     FM020100 03004KT P6SM VCSH OVC018=

USA.gov is the U.S. government's official web portal to all federal, state and local government web resources and services.